Time;durP1;ratioP1;P1;durP2;ratioP2;P2;SDS_P1;SDS_P2;PMS_P1;PMS_P2;Temp;Humidity;BMP_temperature;BMP_pressure;BME280_temperature;BME280_humidity;BME280_pressure;Samples;Min_cycle;Max_cycle;Signal;HPM_P1;HPM_P2
2023/03/11 00:00:54;;;;;;;3.58;1.70;;;2.00;99.90;;;;;;5076309;28;20433;-79
2023/03/11 00:03:23;;;;;;;5.13;1.90;;;2.00;99.90;;;;;;5080291;28;20444;-79
2023/03/11 00:05:53;;;;;;;4.90;1.98;;;2.00;99.90;;;;;;5092138;28;20465;-80
2023/03/11 00:08:22;;;;;;;4.65;1.80;;;2.00;99.90;;;;;;5071502;28;20485;-79
2023/03/11 00:10:53;;;;;;;5.05;2.15;;;2.00;99.90;;;;;;5091245;28;20413;-80
2023/03/11 00:13:21;;;;;;;6.10;2.00;;;2.00;99.90;;;;;;5083960;28;20412;-80
2023/03/11 00:15:50;;;;;;;6.03;2.15;;;2.00;99.90;;;;;;5097699;28;20430;-79
2023/03/11 00:18:17;;;;;;;4.93;1.90;;;2.10;99.90;;;;;;5103365;28;20741;-80
2023/03/11 00:20:46;;;;;;;4.13;1.85;;;2.10;99.90;;;;;;5078911;28;20431;-80
2023/03/11 00:23:15;;;;;;;7.72;2.30;;;2.10;99.90;;;;;;5089628;28;20422;-80
2023/03/11 00:25:44;;;;;;;5.60;2.25;;;2.10;99.90;;;;;;5078580;28;20436;-79
2023/03/11 00:28:10;;;;;;;4.30;2.20;;;2.10;99.90;;;;;;5081841;28;20415;-78
2023/03/11 00:30:38;;;;;;;4.97;2.50;;;2.10;99.90;;;;;;5073695;28;20434;-80
2023/03/11 00:33:08;;;;;;;4.40;2.10;;;2.10;99.90;;;;;;5088415;28;20441;-80
2023/03/11 00:35:35;;;;;;;7.20;2.08;;;2.10;99.90;;;;;;5086534;28;20419;-79
2023/03/11 00:38:04;;;;;;;3.97;2.20;;;2.00;99.90;;;;;;5080065;28;20434;-80
2023/03/11 00:40:34;;;;;;;4.60;2.30;;;1.90;99.90;;;;;;5092168;22;20805;-71
2023/03/11 00:43:01;;;;;;;4.85;1.98;;;1.80;99.90;;;;;;5071968;28;20431;-70
2023/03/11 00:45:28;;;;;;;5.50;1.90;;;1.80;99.90;;;;;;5077809;28;20444;-70
2023/03/11 00:47:56;;;;;;;4.22;2.13;;;1.70;99.90;;;;;;5086637;28;20410;-71
2023/03/11 00:50:24;;;;;;;3.90;2.40;;;1.70;99.90;;;;;;5087280;28;20418;-70
2023/03/11 00:52:52;;;;;;;5.00;2.47;;;1.60;99.90;;;;;;5086242;28;20418;-71
2023/03/11 00:55:21;;;;;;;4.60;2.15;;;1.60;99.90;;;;;;5086179;28;20888;-70
2023/03/11 00:57:53;;;;;;;5.30;2.40;;;1.60;99.90;;;;;;5078715;28;20440;-71
2023/03/11 01:00:23;;;;;;;4.47;2.08;;;1.60;99.90;;;;;;5070249;28;20478;-70
2023/03/11 01:02:50;;;;;;;5.35;2.00;;;1.60;99.90;;;;;;5077997;28;20437;-70
2023/03/11 01:05:20;;;;;;;6.32;2.22;;;1.70;99.90;;;;;;5075717;28;20469;-71
2023/03/11 01:07:46;;;;;;;5.82;2.15;;;1.70;99.90;;;;;;5056326;28;20942;-71
2023/03/11 01:10:13;;;;;;;4.78;2.28;;;1.70;99.90;;;;;;5050378;28;20417;-69
2023/03/11 01:12:40;;;;;;;4.95;2.40;;;1.70;99.90;;;;;;5063823;28;20754;-70
2023/03/11 01:15:14;;;;;;;7.10;2.20;;;1.70;99.90;;;;;;5075892;28;20418;-70
2023/03/11 01:17:41;;;;;;;4.80;2.35;;;1.70;99.90;;;;;;5089458;28;20812;-70
2023/03/11 01:20:09;;;;;;;6.47;2.50;;;1.70;99.90;;;;;;5091099;28;20421;-71
2023/03/11 01:22:36;;;;;;;6.30;2.70;;;1.70;99.90;;;;;;5080062;28;20425;-71
2023/03/11 01:25:03;;;;;;;3.60;2.15;;;1.70;99.90;;;;;;5077364;28;20407;-71
2023/03/11 01:27:30;;;;;;;4.72;1.80;;;1.80;99.90;;;;;;5073219;28;20433;-71
2023/03/11 01:29:57;;;;;;;3.95;1.85;;;1.80;99.90;;;;;;5089044;28;20414;-71
2023/03/11 01:32:25;;;;;;;5.55;2.00;;;1.80;99.90;;;;;;5064962;28;20418;-71
2023/03/11 01:34:51;;;;;;;6.40;2.20;;;1.80;99.90;;;;;;5074815;28;20446;-70
2023/03/11 01:37:19;;;;;;;5.68;2.17;;;1.80;99.90;;;;;;5081639;28;20422;-71
2023/03/11 01:39:45;;;;;;;5.05;2.20;;;1.80;99.90;;;;;;5068764;28;20421;-71
2023/03/11 01:42:12;;;;;;;4.25;2.08;;;1.80;99.90;;;;;;5072275;28;20708;-71
2023/03/11 01:44:39;;;;;;;3.58;1.80;;;1.80;99.90;;;;;;5069240;28;20431;-71
2023/03/11 01:47:39;;;;;;;5.90;2.10;;;1.80;99.90;;;;;;5070003;28;20574;-71
2023/03/11 01:50:12;;;;;;;6.13;1.90;;;1.80;99.90;;;;;;5056346;28;20421;-70
2023/03/11 01:52:39;;;;;;;5.00;2.00;;;1.70;99.90;;;;;;5069688;28;20533;-70
2023/03/11 01:55:07;;;;;;;6.80;1.90;;;1.70;99.90;;;;;;5075067;28;20433;-70
2023/03/11 01:57:34;;;;;;;5.38;2.30;;;1.70;99.90;;;;;;5069198;28;20436;-70
2023/03/11 02:00:05;;;;;;;5.28;1.95;;;1.70;99.90;;;;;;5088221;28;20410;-70
2023/03/11 02:02:35;;;;;;;6.70;2.10;;;1.60;99.90;;;;;;5066327;28;20425;-70
2023/03/11 02:05:04;;;;;;;6.93;2.10;;;1.60;99.90;;;;;;5060769;28;20428;-70
2023/03/11 02:07:32;;;;;;;5.28;1.80;;;1.50;99.90;;;;;;5083020;28;20414;-73
2023/03/11 02:09:58;;;;;;;4.03;1.75;;;1.50;99.90;;;;;;5069262;28;20415;-69
2023/03/11 02:12:28;;;;;;;6.18;1.70;;;1.40;99.90;;;;;;5072660;28;20435;-71
2023/03/11 02:14:55;;;;;;;5.75;2.40;;;1.40;99.90;;;;;;5078609;28;20518;-71
2023/03/11 02:17:22;;;;;;;5.97;2.40;;;1.50;99.90;;;;;;5068434;28;20430;-71
2023/03/11 02:19:59;;;;;;;6.47;2.10;;;1.50;99.90;;;;;;5075736;28;20413;-71
2023/03/11 02:22:32;;;;;;;5.90;2.30;;;1.60;99.90;;;;;;5072691;28;20495;-72
2023/03/11 02:25:04;;;;;;;5.50;2.10;;;1.60;99.90;;;;;;5070823;28;20506;-71
2023/03/11 02:27:34;;;;;;;9.15;2.58;;;1.60;99.90;;;;;;5080651;28;20402;-71
2023/03/11 02:30:01;;;;;;;5.82;2.05;;;1.50;99.90;;;;;;5074086;28;20893;-71
2023/03/11 02:32:28;;;;;;;5.05;2.10;;;1.50;99.90;;;;;;5058554;28;20425;-71
2023/03/11 02:34:55;;;;;;;8.10;2.15;;;1.40;99.90;;;;;;5089648;28;20775;-71
2023/03/11 02:37:22;;;;;;;5.90;2.10;;;1.40;99.90;;;;;;5078592;28;20455;-71
2023/03/11 02:39:52;;;;;;;6.40;2.35;;;1.40;99.90;;;;;;5065315;28;20963;-71
2023/03/11 02:42:24;;;;;;;6.97;2.00;;;1.30;99.90;;;;;;5069522;28;21076;-71
2023/03/11 02:44:59;;;;;;;2.90;1.60;;;1.20;99.90;;;;;;5073192;28;20743;-71
2023/03/11 02:47:26;;;;;;;4.22;2.00;;;1.20;99.90;;;;;;5075262;28;20402;-71
2023/03/11 02:49:54;;;;;;;5.95;2.08;;;1.20;99.90;;;;;;5073422;28;20419;-70
2023/03/11 02:52:21;;;;;;;5.00;2.35;;;1.20;99.90;;;;;;5068676;28;20410;-71
2023/03/11 02:54:48;;;;;;;4.85;1.80;;;1.20;99.90;;;;;;5068369;28;20794;-71
2023/03/11 02:57:15;;;;;;;5.20;1.80;;;1.20;99.90;;;;;;5080392;28;20414;-71
2023/03/11 02:59:41;;;;;;;4.00;1.90;;;1.20;99.90;;;;;;5061599;28;20417;-70
2023/03/11 03:02:10;;;;;;;3.55;1.80;;;1.20;99.90;;;;;;5087244;28;20764;-70
2023/03/11 03:04:36;;;;;;;3.88;1.60;;;1.10;99.90;;;;;;5071340;28;20847;-70
2023/03/11 03:07:03;;;;;;;4.97;1.63;;;1.10;99.90;;;;;;5068398;28;20998;-70
2023/03/11 03:09:30;;;;;;;4.30;1.70;;;1.10;99.90;;;;;;5069898;28;20443;-71
2023/03/11 03:11:57;;;;;;;5.10;1.70;;;1.10;99.90;;;;;;5076719;28;20423;-71
2023/03/11 03:14:24;;;;;;;4.95;1.90;;;1.00;99.90;;;;;;5068061;28;20526;-71
2023/03/11 03:16:50;;;;;;;5.90;2.00;;;1.00;99.90;;;;;;5068451;28;20412;-70
2023/03/11 03:19:18;;;;;;;5.47;1.90;;;1.00;99.90;;;;;;5068613;28;20427;-70
2023/03/11 03:21:45;;;;;;;3.70;1.70;;;0.90;99.90;;;;;;5072977;28;20431;-70
2023/03/11 03:24:12;;;;;;;4.13;2.00;;;0.80;99.90;;;;;;5067639;28;20426;-70
2023/03/11 03:26:39;;;;;;;3.85;1.77;;;0.80;99.90;;;;;;5084154;28;20410;-70
2023/03/11 03:29:05;;;;;;;3.28;1.60;;;0.70;99.90;;;;;;5077953;28;20429;-70
2023/03/11 03:31:32;;;;;;;4.85;1.92;;;0.70;99.90;;;;;;5083055;28;20440;-70
2023/03/11 03:33:59;;;;;;;5.90;2.10;;;0.70;99.90;;;;;;5069409;28;20893;-70
2023/03/11 03:36:27;;;;;;;4.00;2.20;;;0.60;99.90;;;;;;5065876;28;20420;-70
2023/03/11 03:38:55;;;;;;;5.85;2.15;;;0.60;99.90;;;;;;5080006;28;20435;-70
2023/03/11 03:41:22;;;;;;;5.88;2.05;;;0.60;99.90;;;;;;5075732;28;20441;-70
2023/03/11 03:43:49;;;;;;;3.80;1.80;;;0.60;99.90;;;;;;5068541;28;20414;-70
2023/03/11 03:46:16;;;;;;;7.22;2.33;;;0.60;99.90;;;;;;5058889;28;20411;-70
2023/03/11 03:48:43;;;;;;;3.60;1.98;;;0.50;99.90;;;;;;5067683;28;20423;-70
2023/03/11 03:51:12;;;;;;;6.03;1.90;;;0.50;99.90;;;;;;5068895;28;20417;-70
2023/03/11 03:53:40;;;;;;;6.68;2.40;;;0.40;99.90;;;;;;5065416;28;20439;-70
2023/03/11 03:56:10;;;;;;;5.32;1.77;;;0.30;99.90;;;;;;5075326;28;20491;-69
2023/03/11 03:58:36;;;;;;;6.00;2.50;;;0.20;99.90;;;;;;5061395;28;20609;-70
2023/03/11 04:01:04;;;;;;;6.53;2.60;;;0.10;99.90;;;;;;5058897;28;20606;-70
2023/03/11 04:03:32;;;;;;;4.13;1.90;;;0.10;99.90;;;;;;5073721;28;20420;-70
2023/03/11 04:06:06;;;;;;;4.80;1.80;;;0.10;99.90;;;;;;5070028;28;20844;-71
2023/03/11 04:08:33;;;;;;;4.20;1.65;;;0.10;99.90;;;;;;5067151;28;20457;-70
2023/03/11 04:11:01;;;;;;;3.95;1.73;;;0.10;99.90;;;;;;5077448;28;20413;-70
2023/03/11 04:13:28;;;;;;;3.30;1.60;;;0.20;99.90;;;;;;5075819;28;20535;-70
2023/03/11 04:15:55;;;;;;;4.05;2.28;;;0.20;99.90;;;;;;5087199;28;20421;-70
2023/03/11 04:18:22;;;;;;;4.20;1.70;;;0.20;99.90;;;;;;5073681;28;20532;-69
2023/03/11 04:20:49;;;;;;;5.45;2.00;;;0.20;99.90;;;;;;5074102;28;20865;-70
2023/03/11 04:23:16;;;;;;;4.22;1.70;;;0.20;99.90;;;;;;5063936;28;20433;-71
2023/03/11 04:25:43;;;;;;;5.80;1.60;;;0.20;99.90;;;;;;5081064;28;20413;-71
2023/03/11 04:28:11;;;;;;;3.60;1.40;;;0.30;99.90;;;;;;5087673;28;20761;-71
2023/03/11 04:30:38;;;;;;;4.20;1.48;;;0.40;99.90;;;;;;5053901;28;20900;-71
2023/03/11 04:33:04;;;;;;;5.13;1.67;;;0.40;99.90;;;;;;5055570;28;20525;-70
2023/03/11 04:35:31;;;;;;;4.90;1.80;;;0.40;99.80;;;;;;5064471;28;20446;-70
2023/03/11 04:38:00;;;;;;;3.42;1.80;;;0.30;99.90;;;;;;5073444;28;20948;-70
2023/03/11 04:40:27;;;;;;;4.05;1.98;;;0.30;99.40;;;;;;5077592;28;20446;-70
2023/03/11 04:42:54;;;;;;;4.60;2.10;;;0.30;99.70;;;;;;5065682;28;20430;-70
2023/03/11 04:45:22;;;;;;;4.50;1.80;;;0.20;99.80;;;;;;5070686;28;20434;-70
2023/03/11 04:47:49;;;;;;;4.43;1.60;;;0.20;99.90;;;;;;5072016;28;20427;-71
2023/03/11 04:50:17;;;;;;;4.82;1.85;;;0.20;99.90;;;;;;5070152;28;20412;-70
2023/03/11 04:52:44;;;;;;;3.30;1.83;;;0.10;99.90;;;;;;5068795;28;20434;-70
2023/03/11 04:55:12;;;;;;;5.95;1.80;;;0.00;99.90;;;;;;5078730;28;20419;-70
2023/03/11 04:57:39;;;;;;;3.88;1.73;;;0.00;99.90;;;;;;5070460;28;20431;-70
2023/03/11 05:00:09;;;;;;;4.90;2.30;;;-0.10;99.90;;;;;;5088323;28;20418;-70
2023/03/11 05:02:38;;;;;;;6.30;2.05;;;-0.10;99.90;;;;;;5078487;28;20426;-70
2023/03/11 05:05:06;;;;;;;4.20;1.67;;;-0.10;99.90;;;;;;5065345;28;20998;-69
2023/03/11 05:07:33;;;;;;;3.50;1.70;;;-0.10;99.90;;;;;;5068275;28;20431;-71
2023/03/11 05:10:00;;;;;;;3.90;1.90;;;0.00;99.90;;;;;;5072243;28;20412;-70
2023/03/11 05:12:27;;;;;;;5.30;2.38;;;0.00;99.90;;;;;;5069869;28;20419;-70
2023/03/11 05:14:53;;;;;;;4.20;2.00;;;-0.10;99.90;;;;;;5057553;28;20415;-72
2023/03/11 05:17:20;;;;;;;3.60;1.90;;;-0.10;99.90;;;;;;5070621;28;20410;-71
2023/03/11 05:19:48;;;;;;;3.92;1.50;;;-0.10;99.90;;;;;;5063674;28;20441;-71
2023/03/11 05:22:15;;;;;;;3.67;1.95;;;-0.10;99.90;;;;;;5069214;28;20421;-71
2023/03/11 05:24:42;;;;;;;6.10;1.77;;;-0.10;99.90;;;;;;5079874;28;20422;-71
2023/03/11 05:27:08;;;;;;;4.60;2.03;;;0.00;99.90;;;;;;5070877;28;20424;-69
2023/03/11 05:29:35;;;;;;;4.70;2.08;;;0.10;99.90;;;;;;5070871;28;20411;-71
2023/03/11 05:32:02;;;;;;;3.83;1.80;;;0.10;99.90;;;;;;5069799;28;20419;-69
2023/03/11 05:34:29;;;;;;;4.90;2.17;;;0.10;99.90;;;;;;5068544;28;20426;-71
2023/03/11 05:36:57;;;;;;;4.30;2.10;;;0.20;99.90;;;;;;5065399;28;20440;-70
2023/03/11 05:39:24;;;;;;;5.10;1.98;;;0.20;99.90;;;;;;5084550;28;20436;-70
2023/03/11 05:41:51;;;;;;;7.25;2.20;;;0.20;99.90;;;;;;5057016;28;20423;-70
2023/03/11 05:44:17;;;;;;;4.60;2.10;;;0.30;99.90;;;;;;5068453;28;20422;-70
2023/03/11 05:46:44;;;;;;;5.47;1.80;;;0.30;99.90;;;;;;5067017;28;20904;-72
2023/03/11 05:49:11;;;;;;;5.20;3.10;;;0.30;99.90;;;;;;5069510;28;20426;-71
2023/03/11 05:51:38;;;;;;;5.97;2.10;;;0.30;99.90;;;;;;5063815;28;20436;-71
2023/03/11 05:54:10;;;;;;;6.13;2.10;;;0.30;99.90;;;;;;5077877;28;20423;-71
2023/03/11 05:56:37;;;;;;;4.88;2.22;;;0.30;99.90;;;;;;5075442;28;20420;-71
2023/03/11 05:59:04;;;;;;;6.95;2.00;;;0.30;99.90;;;;;;5080573;28;20437;-71
2023/03/11 06:01:31;;;;;;;5.38;2.42;;;0.30;99.90;;;;;;5068581;28;20905;-71
2023/03/11 06:03:57;;;;;;;3.92;2.28;;;0.30;99.90;;;;;;5071647;28;20434;-71
2023/03/11 06:06:24;;;;;;;5.47;2.22;;;0.40;99.80;;;;;;5069724;28;20436;-71
2023/03/11 06:08:51;;;;;;;6.88;2.03;;;0.30;99.90;;;;;;5078600;28;20431;-71
2023/03/11 06:11:19;;;;;;;4.15;2.10;;;0.30;99.90;;;;;;5066887;28;20807;-71
2023/03/11 06:13:46;;;;;;;4.43;2.30;;;0.40;99.90;;;;;;5083013;28;20470;-71
2023/03/11 06:16:13;;;;;;;5.57;2.55;;;0.40;99.90;;;;;;5062133;28;20413;-71
2023/03/11 06:18:39;;;;;;;6.40;2.43;;;0.40;99.90;;;;;;5079651;28;20931;-72
2023/03/11 06:21:07;;;;;;;6.15;1.95;;;0.30;99.90;;;;;;5070366;28;20419;-71
2023/03/11 06:23:34;;;;;;;4.53;2.50;;;0.40;99.90;;;;;;5075623;28;20417;-71
2023/03/11 06:26:03;;;;;;;5.78;2.50;;;0.50;99.90;;;;;;5072302;28;20440;-71
2023/03/11 06:28:32;;;;;;;5.70;2.53;;;0.50;99.90;;;;;;5079017;28;20426;-71
2023/03/11 06:31:07;;;;;;;3.85;1.90;;;0.60;99.90;;;;;;5081598;28;20476;-72
2023/03/11 06:33:34;;;;;;;5.22;2.20;;;0.70;99.80;;;;;;5061824;28;20893;-70
2023/03/11 06:36:01;;;;;;;5.43;2.50;;;0.80;99.70;;;;;;5066134;28;20433;-71
2023/03/11 06:38:28;;;;;;;5.40;2.30;;;1.00;99.10;;;;;;5073589;28;20518;-68
2023/03/11 06:40:59;;;;;;;5.72;2.10;;;1.10;98.50;;;;;;5102314;22;20442;-78
2023/03/11 06:43:25;;;;;;;5.55;3.00;;;1.30;99.70;;;;;;5075113;28;20431;-80
2023/03/11 06:45:54;;;;;;;6.38;2.40;;;1.40;98.40;;;;;;5099105;28;20433;-80
2023/03/11 06:48:21;;;;;;;4.68;1.70;;;1.50;97.50;;;;;;5099197;28;20421;-78
2023/03/11 06:50:54;;;;;;;5.20;1.90;;;1.50;96.50;;;;;;5085590;28;20418;-77
2023/03/11 06:53:21;;;;;;;4.25;3.00;;;1.50;95.90;;;;;;5077228;28;20431;-80
2023/03/11 06:55:58;;;;;;;5.35;2.40;;;1.50;95.90;;;;;;5086257;28;20524;-81
2023/03/11 06:58:25;;;;;;;5.18;2.60;;;1.40;96.20;;;;;;5077909;28;20425;-80
2023/03/11 07:00:54;;;;;;;4.03;1.92;;;1.40;96.90;;;;;;5081608;28;20430;-79
2023/03/11 07:03:21;;;;;;;4.50;2.00;;;1.40;97.30;;;;;;5079540;28;20414;-78
2023/03/11 07:05:51;;;;;;;5.15;2.10;;;1.40;96.50;;;;;;5092547;28;20953;-82
2023/03/11 07:08:18;;;;;;;5.90;2.60;;;1.40;96.50;;;;;;5083158;28;20437;-79
2023/03/11 07:10:45;;;;;;;6.15;2.70;;;1.40;96.70;;;;;;5082392;28;20434;-78
2023/03/11 07:13:12;;;;;;;4.72;2.70;;;1.40;96.60;;;;;;5081228;28;20939;-78
2023/03/11 07:15:39;;;;;;;4.70;2.00;;;1.40;96.80;;;;;;5086384;28;20922;-78
2023/03/11 07:18:08;;;;;;;4.72;2.00;;;1.40;96.70;;;;;;5084237;28;20442;-79
2023/03/11 07:20:35;;;;;;;4.60;2.17;;;1.40;96.30;;;;;;5081803;28;20431;-79
2023/03/11 07:23:03;;;;;;;6.75;2.90;;;1.50;96.50;;;;;;5076981;28;20911;-78
2023/03/11 07:25:30;;;;;;;4.22;2.58;;;1.60;95.80;;;;;;5084871;28;20445;-80
2023/03/11 07:27:57;;;;;;;5.55;2.30;;;1.60;95.90;;;;;;5088809;28;20838;-78
2023/03/11 07:30:23;;;;;;;4.38;2.60;;;1.60;95.40;;;;;;5080963;28;20429;-79
2023/03/11 07:32:50;;;;;;;6.45;2.42;;;1.70;96.20;;;;;;5085473;28;20435;-77
2023/03/11 07:35:18;;;;;;;3.97;2.20;;;1.70;95.50;;;;;;5079813;28;20418;-78
2023/03/11 07:37:45;;;;;;;4.28;2.60;;;1.80;95.70;;;;;;5099001;28;20447;-78
2023/03/11 07:40:13;;;;;;;5.68;2.13;;;1.90;96.00;;;;;;5103777;28;20423;-74
2023/03/11 07:42:40;;;;;;;4.60;2.50;;;1.90;95.40;;;;;;5103954;28;20417;-76
2023/03/11 07:45:08;;;;;;;5.75;2.40;;;2.00;95.00;;;;;;5101137;28;20491;-76
2023/03/11 07:47:35;;;;;;;5.45;3.13;;;2.00;94.90;;;;;;5096685;28;20406;-75
2023/03/11 07:50:01;;;;;;;6.63;2.58;;;2.10;95.00;;;;;;5097423;28;20432;-78
2023/03/11 07:52:31;;;;;;;4.18;2.40;;;2.20;94.90;;;;;;5079164;28;20906;-78
2023/03/11 07:54:58;;;;;;;5.95;2.33;;;2.30;94.00;;;;;;5073558;28;20434;-77
2023/03/11 07:57:25;;;;;;;4.68;2.30;;;2.50;94.30;;;;;;5080190;28;20497;-77
2023/03/11 07:59:52;;;;;;;4.90;2.47;;;2.70;93.20;;;;;;5082051;28;20497;-78
2023/03/11 08:02:19;;;;;;;7.60;3.10;;;2.90;92.30;;;;;;5073162;28;20463;-78
2023/03/11 08:04:46;;;;;;;5.05;2.30;;;3.00;91.70;;;;;;5080296;28;20437;-77
2023/03/11 08:07:12;;;;;;;5.50;2.40;;;3.20;92.00;;;;;;5081465;28;20468;-78
2023/03/11 08:09:41;;;;;;;6.93;3.17;;;3.40;91.80;;;;;;5075201;28;20461;-77
2023/03/11 08:12:08;;;;;;;5.85;2.50;;;3.50;90.40;;;;;;5084195;28;20442;-77
2023/03/11 08:14:35;;;;;;;4.95;2.53;;;3.50;90.00;;;;;;5079638;28;20433;-77
2023/03/11 08:17:03;;;;;;;4.45;2.38;;;3.60;89.40;;;;;;5078086;28;20414;-77
2023/03/11 08:19:30;;;;;;;6.38;2.40;;;3.70;88.90;;;;;;5083136;28;20437;-78
2023/03/11 08:21:57;;;;;;;4.78;2.03;;;3.80;89.90;;;;;;5079943;28;20453;-78
2023/03/11 08:24:23;;;;;;;5.47;2.40;;;4.00;87.50;;;;;;5081172;28;20770;-76
2023/03/11 08:26:52;;;;;;;5.40;2.50;;;4.20;89.00;;;;;;5090223;28;20430;-79
2023/03/11 08:29:18;;;;;;;8.20;2.60;;;4.40;86.70;;;;;;5084565;28;20494;-79
2023/03/11 08:31:45;;;;;;;4.38;2.17;;;4.60;86.60;;;;;;5078637;28;20426;-80
2023/03/11 08:34:16;;;;;;;4.15;2.30;;;4.80;83.80;;;;;;5076182;28;20453;-78
2023/03/11 08:36:43;;;;;;;5.18;2.10;;;4.90;82.10;;;;;;5080376;28;20500;-78
2023/03/11 08:39:10;;;;;;;5.45;2.28;;;5.10;80.90;;;;;;5083922;28;20426;-79
2023/03/11 08:41:37;;;;;;;4.00;1.75;;;5.00;79.90;;;;;;5080341;28;20426;-79
2023/03/11 08:44:05;;;;;;;4.70;2.05;;;4.90;80.60;;;;;;5093830;28;20406;-79
2023/03/11 08:46:36;;;;;;;4.28;1.70;;;5.10;80.70;;;;;;5088847;28;20458;-79
2023/03/11 08:49:04;;;;;;;5.53;1.98;;;5.30;79.30;;;;;;5085050;28;20421;-79
2023/03/11 08:51:32;;;;;;;5.90;2.40;;;5.40;77.60;;;;;;5089635;28;20429;-80
2023/03/11 08:54:00;;;;;;;3.25;2.10;;;5.50;78.20;;;;;;5081076;28;20416;-79
2023/03/11 08:56:27;;;;;;;4.43;2.00;;;5.60;74.90;;;;;;5074642;28;20834;-79
2023/03/11 08:58:54;;;;;;;7.20;2.40;;;5.70;75.20;;;;;;5093697;28;20422;-79
2023/03/11 09:01:22;;;;;;;3.85;2.20;;;5.90;75.00;;;;;;5085880;28;20455;-79
2023/03/11 09:03:49;;;;;;;3.95;1.90;;;6.00;71.80;;;;;;5078495;28;20471;-79
2023/03/11 09:06:17;;;;;;;5.40;2.45;;;6.20;71.50;;;;;;5079673;28;20429;-79
2023/03/11 09:08:46;;;;;;;4.60;2.40;;;6.30;70.30;;;;;;5090202;28;20428;-77
2023/03/11 09:11:13;;;;;;;5.57;2.20;;;6.40;69.50;;;;;;5077459;28;20431;-77
2023/03/11 09:13:41;;;;;;;4.30;2.00;;;6.60;71.00;;;;;;5079030;28;20498;-77
2023/03/11 09:16:08;;;;;;;4.07;1.92;;;6.80;63.40;;;;;;5087126;28;20424;-79
2023/03/11 09:18:37;;;;;;;5.45;2.10;;;6.70;64.40;;;;;;5076240;28;20423;-79
2023/03/11 09:21:04;;;;;;;4.22;1.90;;;6.70;66.50;;;;;;5087072;28;20426;-80
2023/03/11 09:23:30;;;;;;;2.80;1.50;;;7.00;65.20;;;;;;5098788;28;20661;-79
2023/03/11 09:25:57;;;;;;;3.67;1.50;;;7.20;60.80;;;;;;5094377;28;20452;-78
2023/03/11 09:28:24;;;;;;;4.20;1.60;;;7.50;60.10;;;;;;5094236;28;20425;-80
2023/03/11 09:30:51;;;;;;;2.80;1.50;;;7.60;59.00;;;;;;5087706;28;20403;-80
2023/03/11 09:33:18;;;;;;;4.60;1.30;;;7.60;57.60;;;;;;5103424;28;20433;-78
2023/03/11 09:35:46;;;;;;;1.48;0.95;;;7.60;54.10;;;;;;5100891;28;20430;-80
2023/03/11 09:38:13;;;;;;;4.20;1.93;;;7.70;50.30;;;;;;5095403;28;20423;-79
2023/03/11 09:40:49;;;;;;;1.92;1.40;;;7.40;51.00;;;;;;5077118;28;20432;-78
2023/03/11 09:43:25;;;;;;;1.55;0.80;;;7.30;52.00;;;;;;5084150;28;20522;-79
2023/03/11 09:46:00;;;;;;;2.40;1.00;;;7.40;51.50;;;;;;5079543;28;20413;-79
2023/03/11 09:48:37;;;;;;;1.85;0.90;;;7.50;46.10;;;;;;5098721;28;20420;-80
2023/03/11 09:51:12;;;;;;;2.67;1.00;;;7.30;47.30;;;;;;5089854;28;20929;-80
2023/03/11 09:53:41;;;;;;;1.80;1.25;;;7.60;48.20;;;;;;5082180;28;20437;-80
2023/03/11 09:56:11;;;;;;;2.65;1.40;;;7.80;50.10;;;;;;5080258;28;21227;-80
2023/03/11 09:58:40;;;;;;;3.50;1.20;;;8.00;51.30;;;;;;5079973;28;20419;-79
2023/03/11 10:01:16;;;;;;;3.40;0.93;;;8.20;48.80;;;;;;5091930;28;20494;-80
2023/03/11 10:03:44;;;;;;;2.42;1.20;;;8.30;48.20;;;;;;5084440;28;20509;-79
2023/03/11 10:06:17;;;;;;;3.07;1.10;;;8.20;48.00;;;;;;5090146;28;20486;-79
2023/03/11 10:08:48;;;;;;;2.38;1.00;;;8.10;48.30;;;;;;5085466;28;20410;-79
2023/03/11 10:11:26;;;;;;;3.40;1.50;;;7.80;48.00;;;;;;5095969;28;20406;-80
2023/03/11 10:14:01;;;;;;;2.33;1.50;;;7.60;48.10;;;;;;5088612;28;20507;-79
2023/03/11 10:16:34;;;;;;;1.80;0.90;;;7.50;48.40;;;;;;5078970;28;20477;-78
2023/03/11 10:19:09;;;;;;;2.40;1.10;;;7.50;50.10;;;;;;5093590;28;20426;-79
2023/03/11 10:21:46;;;;;;;3.00;1.30;;;7.80;47.90;;;;;;5087764;28;20489;-78
2023/03/11 10:24:22;;;;;;;3.60;1.40;;;8.30;49.10;;;;;;5083215;28;20517;-78
2023/03/11 10:26:53;;;;;;;3.90;1.00;;;9.00;46.40;;;;;;5090425;28;20422;-78
2023/03/11 10:29:25;;;;;;;3.58;1.30;;;9.60;42.80;;;;;;5099791;28;20406;-78
2023/03/11 10:31:57;;;;;;;1.30;0.77;;;10.10;41.70;;;;;;5074589;28;20773;-79
2023/03/11 10:34:31;;;;;;;1.98;1.00;;;10.50;41.40;;;;;;5081226;28;20437;-79
2023/03/11 10:37:05;;;;;;;2.90;1.20;;;10.70;39.80;;;;;;5080269;28;20915;-79
2023/03/11 10:39:33;;;;;;;1.50;0.80;;;10.80;40.50;;;;;;5071503;28;20497;-79
2023/03/11 10:42:03;;;;;;;2.80;1.20;;;10.70;40.40;;;;;;5081268;28;20795;-79
2023/03/11 10:44:34;;;;;;;2.95;1.00;;;10.70;39.50;;;;;;5071915;28;20494;-78
2023/03/11 10:47:01;;;;;;;2.63;1.00;;;10.80;39.30;;;;;;5074792;28;20488;-78
2023/03/11 10:49:28;;;;;;;3.22;0.98;;;10.90;38.90;;;;;;5082524;28;20503;-79
2023/03/11 10:51:56;;;;;;;1.55;0.77;;;10.80;36.80;;;;;;5069964;28;20427;-78
2023/03/11 10:54:30;;;;;;;1.80;0.80;;;10.60;39.40;;;;;;5068673;28;20452;-78
2023/03/11 10:56:59;;;;;;;2.50;1.00;;;10.70;38.70;;;;;;5084218;28;20418;-79
2023/03/11 10:59:30;;;;;;;4.38;2.38;;;10.60;38.50;;;;;;5070408;28;20411;-79
2023/03/11 11:01:59;;;;;;;2.45;1.10;;;10.60;39.10;;;;;;5076470;28;20428;-79
2023/03/11 11:04:30;;;;;;;5.05;1.50;;;10.70;38.10;;;;;;5087054;28;20620;-71
2023/03/11 11:06:58;;;;;;;3.65;1.10;;;10.70;38.70;;;;;;5069509;28;20426;-69
2023/03/11 11:09:24;;;;;;;2.50;1.30;;;10.80;37.60;;;;;;5075355;28;20422;-80
2023/03/11 11:12:04;;;;;;;3.15;1.20;;;11.00;43.60;;;;;;5087013;28;20961;-76
2023/03/11 11:14:49;;;;;;;2.43;1.20;;;11.10;38.60;;;;;;5072152;28;20439;-77
2023/03/11 11:17:23;;;;;;;4.22;1.30;;;11.10;39.00;;;;;;5072912;28;20500;-77
2023/03/11 11:19:52;;;;;;;2.20;1.20;;;11.10;39.20;;;;;;5073758;28;20426;-79
2023/03/11 11:22:20;;;;;;;1.77;1.10;;;11.10;39.40;;;;;;5078447;28;20531;-79
2023/03/11 11:24:50;;;;;;;2.97;1.20;;;11.10;39.20;;;;;;5087851;28;20453;-77
2023/03/11 11:27:20;;;;;;;2.97;1.57;;;10.90;39.80;;;;;;5080099;28;20447;-78
2023/03/11 11:30:02;;;;;;;2.70;1.25;;;10.70;39.80;;;;;;5092776;28;21181;-77
2023/03/11 11:32:30;;;;;;;2.22;1.10;;;10.60;39.50;;;;;;5100782;28;20406;-76
2023/03/11 11:34:59;;;;;;;2.55;1.23;;;10.60;39.70;;;;;;5097188;28;20533;-78
2023/03/11 11:37:30;;;;;;;2.90;1.23;;;10.40;40.30;;;;;;5095095;28;21103;-78
2023/03/11 11:40:08;;;;;;;3.45;1.30;;;9.80;38.10;;;;;;5084760;28;20417;-79
2023/03/11 11:42:38;;;;;;;2.38;1.40;;;9.40;40.70;;;;;;5084875;28;20404;-78
2023/03/11 11:45:13;;;;;;;4.07;1.70;;;9.20;42.30;;;;;;5072873;28;20916;-77
2023/03/11 11:47:45;;;;;;;2.80;1.52;;;9.10;43.30;;;;;;5081592;28;20482;-77
2023/03/11 11:50:17;;;;;;;5.03;1.60;;;9.00;43.50;;;;;;5083770;28;20425;-77
2023/03/11 11:52:49;;;;;;;3.30;1.40;;;9.00;44.50;;;;;;5074093;28;20425;-77
2023/03/11 11:55:20;;;;;;;2.35;1.20;;;8.80;42.00;;;;;;5067459;28;20418;-77
2023/03/11 11:57:50;;;;;;;2.03;1.40;;;8.40;41.50;;;;;;5069633;28;20889;-79
2023/03/11 12:00:20;;;;;;;3.40;1.50;;;8.20;43.00;;;;;;5068383;28;20454;-78
2023/03/11 12:03:03;;;;;;;2.17;1.30;;;8.30;45.00;;;;;;5066638;28;20412;-78
2023/03/11 12:05:31;;;;;;;2.67;1.40;;;8.40;45.10;;;;;;5088571;28;20424;-77
2023/03/11 12:08:08;;;;;;;3.00;1.52;;;8.70;44.10;;;;;;5089606;28;20422;-78
2023/03/11 12:10:46;;;;;;;4.00;1.50;;;8.60;42.40;;;;;;5079156;28;20426;-78
2023/03/11 12:13:45;;;;;;;3.77;2.00;;;8.50;42.60;;;;;;5068320;28;20498;-78
2023/03/11 12:16:23;;;;;;;2.70;1.75;;;8.40;43.00;;;;;;5053290;28;20431;-77
2023/03/11 12:18:55;;;;;;;2.72;1.30;;;8.50;44.00;;;;;;5078331;28;20429;-78
2023/03/11 12:21:34;;;;;;;3.00;1.30;;;8.80;45.60;;;;;;5073223;28;20418;-76
2023/03/11 12:24:11;;;;;;;3.17;1.65;;;8.80;44.20;;;;;;5066164;28;20892;-77
2023/03/11 12:26:42;;;;;;;3.22;1.60;;;8.90;43.90;;;;;;5068606;28;20940;-77
2023/03/11 12:29:14;;;;;;;3.70;1.60;;;8.80;43.30;;;;;;5079973;28;20746;-76
2023/03/11 12:31:43;;;;;;;3.47;1.60;;;8.70;46.00;;;;;;5078354;28;20428;-77
2023/03/11 12:34:12;;;;;;;2.88;1.48;;;8.60;45.90;;;;;;5084605;28;20498;-77
2023/03/11 12:36:42;;;;;;;2.58;1.17;;;8.50;45.20;;;;;;5070500;28;20419;-76
2023/03/11 12:39:22;;;;;;;2.10;1.38;;;8.20;43.40;;;;;;5069571;28;20419;-77
2023/03/11 12:42:09;;;;;;;1.92;1.40;;;7.80;44.30;;;;;;5080769;22;20706;-71
2023/03/11 12:44:37;;;;;;;2.60;1.70;;;7.60;47.00;;;;;;5078454;28;20421;-72
2023/03/11 12:47:18;;;;;;;2.10;1.80;;;8.00;45.80;;;;;;5092045;28;20424;-72
2023/03/11 12:49:47;;;;;;;3.00;1.48;;;8.30;45.90;;;;;;5063982;28;20430;-71
2023/03/11 12:52:26;;;;;;;2.83;1.25;;;8.60;45.90;;;;;;5065739;28;20549;-71
2023/03/11 12:55:24;;;;;;;3.45;1.30;;;9.10;44.60;;;;;;5055174;28;20425;-70
2023/03/11 12:57:58;;;;;;;2.35;1.30;;;9.30;42.00;;;;;;5045879;28;20413;-71
2023/03/11 13:00:40;;;;;;;2.65;1.70;;;9.40;42.50;;;;;;5063258;28;20430;-72
2023/03/11 13:03:24;;;;;;;2.72;1.10;;;9.50;41.10;;;;;;5084435;28;20414;-72
2023/03/11 13:05:58;;;;;;;3.67;1.20;;;9.50;40.70;;;;;;5049431;28;20428;-70